createdAt,value
2023-03-06T00:01:33.641Z,100782.81
2023-03-06T00:03:35.185Z,100784.56
2023-03-06T00:05:36.727Z,100779.38
2023-03-06T00:07:38.272Z,100774.16
2023-03-06T00:09:39.725Z,100776.69
2023-03-06T00:11:41.203Z,100768.94
2023-03-06T00:13:42.666Z,100772.41
2023-03-06T00:15:44.221Z,100769.00
2023-03-06T00:17:45.666Z,100767.25
2023-03-06T00:19:47.256Z,100768.09
2023-03-06T00:21:49.144Z,100766.31
2023-03-06T00:23:50.600Z,100764.56
2023-03-06T00:25:52.073Z,100770.63
2023-03-06T00:27:53.548Z,100767.16
2023-03-06T00:29:56.494Z,100769.72
2023-03-06T00:31:58.015Z,100770.56
2023-03-06T00:33:59.488Z,100763.63
2023-03-06T00:36:04.185Z,100761.03
2023-03-06T00:38:05.655Z,100765.38
2023-03-06T00:40:09.848Z,100767.91
2023-03-06T00:42:11.421Z,100768.66
2023-03-06T00:44:12.951Z,100770.34
2023-03-06T00:46:14.436Z,100771.22
2023-03-06T00:48:15.907Z,100780.69
2023-03-06T00:50:17.498Z,100778.91
2023-03-06T00:52:18.964Z,100785.75
2023-03-06T00:54:20.444Z,100779.66
2023-03-06T00:56:21.942Z,100784.03
2023-03-06T00:58:23.412Z,100787.47
2023-03-06T01:00:25.046Z,100783.13
2023-03-06T01:02:26.586Z,100767.59
2023-03-06T01:04:28.175Z,100770.22
2023-03-06T01:06:29.725Z,100759.91
2023-03-06T01:08:31.201Z,100754.69
2023-03-06T01:10:32.750Z,100760.69
2023-03-06T01:12:34.218Z,100759.00
2023-03-06T01:14:35.950Z,100752.94
2023-03-06T01:16:37.502Z,100743.41
2023-03-06T01:18:39.295Z,100745.16
2023-03-06T01:20:40.842Z,100746.03
2023-03-06T01:22:42.714Z,100745.19
2023-03-06T01:24:44.192Z,100744.31
2023-03-06T01:26:45.695Z,100746.03
2023-03-06T01:28:47.200Z,100739.94
2023-03-06T01:30:48.803Z,100741.66
2023-03-06T01:32:50.286Z,100733.88
2023-03-06T01:34:51.769Z,100741.69
2023-03-06T01:36:53.248Z,100738.19
2023-03-06T01:38:54.764Z,100737.28
2023-03-06T01:40:56.207Z,100734.69
2023-03-06T01:42:57.713Z,100732.09
2023-03-06T01:45:28.172Z,100722.56
2023-03-06T01:47:29.772Z,100721.69
2023-03-06T01:49:36.278Z,100721.72
2023-03-06T01:52:01.823Z,100715.63
2023-03-06T01:54:08.166Z,100721.69
2023-03-06T01:56:13.336Z,100714.75
2023-03-06T01:58:18.318Z,100713.03
2023-03-06T02:00:25.544Z,100708.69
2023-03-06T02:02:27.270Z,100711.31
2023-03-06T02:04:29.812Z,100707.84
2023-03-06T02:06:35.631Z,100698.28
2023-03-06T02:08:37.277Z,100690.47
2023-03-06T02:10:42.412Z,100693.06
2023-03-06T02:12:44.283Z,100700.81
2023-03-06T02:14:46.908Z,100700.78
2023-03-06T02:16:48.605Z,100687.78
2023-03-06T02:18:51.613Z,100694.72
2023-03-06T02:20:57.397Z,100695.59
2023-03-06T02:23:04.598Z,100695.59
2023-03-06T02:25:24.741Z,100689.53
2023-03-06T02:27:27.771Z,100688.59
2023-03-06T02:29:30.401Z,100688.56
2023-03-06T02:31:33.440Z,100685.94
2023-03-06T02:33:34.904Z,100667.66
2023-03-06T02:35:39.076Z,100677.22
2023-03-06T02:37:40.569Z,100681.59
2023-03-06T02:39:46.794Z,100678.16
2023-03-06T02:41:48.298Z,100679.84
2023-03-06T02:43:51.970Z,100675.50
2023-03-06T02:45:53.627Z,100685.88
2023-03-06T02:47:55.120Z,100680.66
2023-03-06T02:49:56.594Z,100679.81
2023-03-06T02:51:58.093Z,100665.09
2023-03-06T02:53:59.601Z,100675.53
2023-03-06T02:56:01.296Z,100665.16
2023-03-06T02:58:03.512Z,100660.84
2023-03-06T03:00:07.076Z,100669.53
2023-03-06T03:02:08.650Z,100671.25
2023-03-06T03:04:10.952Z,100663.47
2023-03-06T03:06:12.452Z,100653.06
2023-03-06T03:08:13.972Z,100651.38
2023-03-06T03:10:16.041Z,100644.44
2023-03-06T03:12:17.530Z,100644.47
2023-03-06T03:14:19.021Z,100646.19
2023-03-06T03:16:20.598Z,100652.28
2023-03-06T03:18:22.124Z,100633.22
2023-03-06T03:20:23.740Z,100634.09
2023-03-06T03:22:25.212Z,100630.63
2023-03-06T03:24:26.818Z,100639.28
2023-03-06T03:26:28.341Z,100640.16
2023-03-06T03:28:29.831Z,100628.03
2023-03-06T03:30:31.293Z,100628.88
2023-03-06T03:32:32.912Z,100626.31
2023-03-06T03:34:34.511Z,100630.63
2023-03-06T03:36:36.049Z,100628.03
2023-03-06T03:38:37.568Z,100628.03
2023-03-06T03:40:39.152Z,100625.44
2023-03-06T03:42:40.661Z,100623.69
2023-03-06T03:44:42.188Z,100619.34
2023-03-06T03:46:44.070Z,100617.63
2023-03-06T03:48:45.667Z,100617.63
2023-03-06T03:50:47.129Z,100610.69
2023-03-06T03:52:48.590Z,100609.84
2023-03-06T03:54:50.074Z,100611.56
2023-03-06T03:56:51.596Z,100610.69
2023-03-06T03:58:54.694Z,100603.75
2023-03-06T04:00:56.278Z,100600.28
2023-03-06T04:02:57.787Z,100596.81
2023-03-06T04:04:59.754Z,100596.81
2023-03-06T04:07:01.315Z,100603.75
2023-03-06T04:09:04.538Z,100597.69
2023-03-06T04:11:06.234Z,100599.41
2023-03-06T04:13:09.958Z,100603.75
2023-03-06T04:15:11.720Z,100605.47
2023-03-06T04:17:13.239Z,100602.88
2023-03-06T04:19:14.739Z,100594.22
2023-03-06T04:21:16.301Z,100599.41
2023-03-06T04:23:19.141Z,100593.28
2023-03-06T04:25:20.669Z,100588.06
2023-03-06T04:27:22.142Z,100590.66
2023-03-06T04:29:23.816Z,100588.91
2023-03-06T04:31:25.294Z,100588.03
2023-03-06T04:33:26.942Z,100586.31
2023-03-06T04:35:28.498Z,100581.97
2023-03-06T04:37:29.977Z,100575.91
2023-03-06T04:39:31.479Z,100580.25
2023-03-06T04:41:32.990Z,100582.84
2023-03-06T04:43:34.539Z,100582.88
2023-03-06T04:45:36.123Z,100584.59
2023-03-06T04:47:37.660Z,100578.56
2023-03-06T04:49:39.188Z,100583.75
2023-03-06T04:51:40.637Z,100582.88
2023-03-06T04:53:42.148Z,100576.84
2023-03-06T04:55:43.673Z,100575.09
2023-03-06T04:57:46.598Z,100575.09
2023-03-06T04:59:49.617Z,100574.22
2023-03-06T05:01:51.208Z,100570.78
2023-03-06T05:03:52.773Z,100566.44
2023-03-06T05:05:54.306Z,100564.72
2023-03-06T05:07:56.145Z,100563.84
2023-03-06T05:09:57.609Z,100568.16
2023-03-06T05:11:59.041Z,100556.88
2023-03-06T05:14:00.552Z,100560.31
2023-03-06T05:16:06.652Z,100559.41
2023-03-06T05:18:08.275Z,100562.00
2023-03-06T05:20:12.684Z,100557.66
2023-03-06T05:22:14.142Z,100554.16
2023-03-06T05:24:15.774Z,100554.13
2023-03-06T05:26:17.250Z,100554.13
2023-03-06T05:28:18.740Z,100554.94
2023-03-06T05:30:22.459Z,100549.72
2023-03-06T05:32:35.440Z,100545.34
2023-03-06T05:34:37.281Z,100549.63
2023-03-06T05:36:38.774Z,100549.66
2023-03-06T05:38:40.470Z,100553.16
2023-03-06T05:40:43.854Z,100558.38
2023-03-06T05:42:45.334Z,100553.19
2023-03-06T05:44:46.964Z,100554.06
2023-03-06T05:46:49.978Z,100553.19
2023-03-06T05:48:54.046Z,100550.59
2023-03-06T05:50:58.456Z,100549.75
2023-03-06T05:53:00.219Z,100543.69
2023-03-06T05:55:01.864Z,100535.03
2023-03-06T05:57:04.934Z,100541.09
2023-03-06T05:59:06.425Z,100534.16
2023-03-06T06:01:10.865Z,100533.28
2023-03-06T06:03:12.445Z,100535.00
2023-03-06T06:05:14.085Z,100538.50
2023-03-06T06:07:16.572Z,100535.88
2023-03-06T06:09:18.091Z,100533.19
2023-03-06T06:11:20.832Z,100535.75
2023-03-06T06:13:22.304Z,100535.75
2023-03-06T06:15:23.890Z,100527.06
2023-03-06T06:17:25.358Z,100523.59
2023-03-06T06:19:29.715Z,100525.31
2023-03-06T06:21:31.183Z,100526.19
2023-03-06T06:23:33.133Z,100525.31
2023-03-06T06:25:35.630Z,100537.47
2023-03-06T06:27:37.092Z,100531.41
2023-03-06T06:29:38.560Z,100537.47
2023-03-06T06:31:40.608Z,100540.06
2023-03-06T06:33:43.175Z,100534.88
2023-03-06T06:35:44.696Z,100537.47
2023-03-06T06:37:46.150Z,100540.94
2023-03-06T06:39:47.624Z,100542.66
2023-03-06T06:42:05.480Z,100533.16
2023-03-06T06:44:15.523Z,100538.41
2023-03-06T06:46:53.357Z,100535.84
2023-03-06T06:48:38.470Z,100536.72
2023-03-06T06:50:39.976Z,100538.41
2023-03-06T06:52:41.755Z,100537.50
2023-03-06T06:54:43.226Z,100547.06
2023-03-06T06:56:44.696Z,100547.06
2023-03-06T06:58:46.166Z,100540.13
2023-03-06T07:00:47.664Z,100547.91
2023-03-06T07:02:51.125Z,100546.22
2023-03-06T07:05:03.770Z,100550.56
2023-03-06T07:07:06.409Z,100550.50
2023-03-06T07:09:08.117Z,100548.81
2023-03-06T07:11:13.976Z,100554.91
2023-03-06T07:13:15.468Z,100546.25
2023-03-06T07:15:17.830Z,100554.06
2023-03-06T07:17:19.318Z,100550.63
2023-03-06T07:19:20.786Z,100556.69
2023-03-06T07:21:22.375Z,100554.03
2023-03-06T07:23:24.836Z,100542.72
2023-03-06T07:25:26.319Z,100550.56
2023-03-06T07:27:27.897Z,100547.91
2023-03-06T07:29:29.459Z,100549.66
2023-03-06T07:31:31.073Z,100547.09
2023-03-06T07:33:32.559Z,100543.66
2023-03-06T07:35:34.306Z,100547.16
2023-03-06T07:37:35.893Z,100545.47
2023-03-06T07:39:37.462Z,100552.44
2023-03-06T07:41:39.011Z,100557.72
2023-03-06T07:43:41.303Z,100551.69
2023-03-06T07:45:42.812Z,100551.72
2023-03-06T07:47:45.780Z,100552.66
2023-03-06T07:49:47.280Z,100553.56
2023-03-06T07:51:48.818Z,100550.09
2023-03-06T07:53:50.713Z,100551.88
2023-03-06T07:55:53.216Z,100544.94
2023-03-06T07:57:54.726Z,100553.56
2023-03-06T07:59:56.237Z,100541.44
2023-03-06T08:01:57.790Z,100545.78
2023-03-06T08:04:01.156Z,100546.69
2023-03-06T08:06:07.683Z,100556.25
2023-03-06T08:08:09.194Z,100549.34
2023-03-06T08:10:13.569Z,100553.69
2023-03-06T08:12:16.674Z,100558.09
2023-03-06T08:14:18.237Z,100557.25
2023-03-06T08:16:25.460Z,100559.75
2023-03-06T08:18:28.174Z,100558.03
2023-03-06T08:20:29.668Z,100558.94
2023-03-06T08:22:31.162Z,100561.47
2023-03-06T08:24:33.844Z,100566.63
2023-03-06T08:26:35.759Z,100570.06
2023-03-06T08:28:37.213Z,100565.72
2023-03-06T08:30:38.713Z,100567.44
2023-03-06T08:32:40.420Z,100572.66
2023-03-06T08:34:42.841Z,100570.91
2023-03-06T08:36:44.556Z,100577.00
2023-03-06T08:38:46.050Z,100574.44
2023-03-06T08:40:47.532Z,100581.44
2023-03-06T08:42:49.257Z,100580.63
2023-03-06T08:44:50.777Z,100589.34
2023-03-06T08:46:52.264Z,100589.38
2023-03-06T08:48:54.087Z,100590.28
2023-03-06T08:50:55.850Z,100586.81
2023-03-06T08:52:57.396Z,100590.34
2023-03-06T08:55:03.367Z,100586.91
2023-03-06T08:57:05.092Z,100591.22
2023-03-06T08:59:06.968Z,100589.41
2023-03-06T09:01:14.708Z,100588.53
2023-03-06T09:03:16.230Z,100583.31
2023-03-06T09:05:17.797Z,100592.84
2023-03-06T09:07:19.404Z,100594.59
2023-03-06T09:09:20.941Z,100585.94
2023-03-06T09:11:24.255Z,100593.78
2023-03-06T09:13:25.809Z,100591.16
2023-03-06T09:15:27.472Z,100595.50
2023-03-06T09:17:29.929Z,100594.66
2023-03-06T09:19:31.415Z,100599.00
2023-03-06T09:21:33.127Z,100603.38
2023-03-06T09:23:35.227Z,100600.81
2023-03-06T09:25:36.877Z,100603.41
2023-03-06T09:27:38.347Z,100610.38
2023-03-06T09:29:39.826Z,100601.72
2023-03-06T09:31:41.326Z,100601.75
2023-03-06T09:33:43.161Z,100607.00
2023-03-06T09:35:53.927Z,100607.03
2023-03-06T09:37:55.473Z,100605.28
2023-03-06T09:39:57.707Z,100597.47
2023-03-06T09:41:59.593Z,100600.09
2023-03-06T09:44:05.880Z,100595.75
2023-03-06T09:46:42.463Z,100602.69
2023-03-06T09:49:02.567Z,100603.56
2023-03-06T09:51:12.106Z,100600.06
2023-03-06T09:53:41.534Z,100604.41
2023-03-06T09:55:50.140Z,100600.06
2023-03-06T09:57:56.861Z,100600.06
2023-03-06T10:00:04.725Z,100600.94
2023-03-06T10:02:17.887Z,100598.34
2023-03-06T10:04:37.129Z,100607.91
2023-03-06T10:06:46.354Z,100603.56
2023-03-06T10:09:06.586Z,100604.47
2023-03-06T10:11:13.084Z,100590.56
2023-03-06T10:13:20.807Z,100587.94
2023-03-06T10:15:31.637Z,100595.75
2023-03-06T10:17:41.239Z,100589.69
2023-03-06T10:19:42.996Z,100594.03
2023-03-06T10:21:56.565Z,100589.69
2023-03-06T10:24:04.152Z,100587.09
2023-03-06T10:26:15.898Z,100595.75
2023-03-06T10:28:21.942Z,100599.22
2023-03-06T10:30:32.612Z,100596.63
2023-03-06T10:32:54.984Z,100594.00
2023-03-06T10:35:01.118Z,100598.34
2023-03-06T10:37:18.988Z,100599.22
2023-03-06T10:39:22.435Z,100595.75
2023-03-06T10:41:28.352Z,100598.34
2023-03-06T10:43:29.802Z,100590.53
2023-03-06T10:45:40.563Z,100587.09
2023-03-06T10:47:48.889Z,100594.03
2023-03-06T10:49:58.971Z,100588.81
2023-03-06T10:52:02.101Z,100591.44
2023-03-06T10:54:19.378Z,100584.47
2023-03-06T10:56:37.565Z,100578.34
2023-03-06T10:58:39.046Z,100586.97
2023-03-06T11:00:40.507Z,100588.69
2023-03-06T11:02:42.041Z,100587.75
2023-03-06T11:04:51.244Z,100589.41
2023-03-06T11:07:17.717Z,100590.19
2023-03-06T11:09:19.129Z,100583.13
2023-03-06T11:11:36.748Z,100587.34
2023-03-06T11:13:41.664Z,100585.38
2023-03-06T11:15:56.422Z,100588.44
2023-03-06T11:18:31.002Z,100590.47
2023-03-06T11:20:49.902Z,100582.50
2023-03-06T11:22:55.465Z,100573.69
2023-03-06T11:24:58.351Z,100570.69
2023-03-06T11:27:07.011Z,100578.66
2023-03-06T11:29:29.604Z,100572.94
2023-03-06T11:31:35.143Z,100575.34
2023-03-06T11:33:47.517Z,100570.59
2023-03-06T11:35:56.426Z,100572.56
2023-03-06T11:38:06.772Z,100579.03
2023-03-06T11:40:10.988Z,100573.72
2023-03-06T11:42:37.672Z,100566.22
2023-03-06T11:44:47.203Z,100568.81
2023-03-06T11:46:53.630Z,100564.44
2023-03-06T11:49:06.323Z,100568.59
2023-03-06T11:51:36.318Z,100561.22
2023-03-06T11:53:39.918Z,100557.44
2023-03-06T11:55:59.022Z,100560.00
2023-03-06T11:58:28.170Z,100552.44
2023-03-06T12:00:44.271Z,100558.00
2023-03-06T12:03:09.331Z,100558.25
2023-03-06T12:05:28.834Z,100554.47
2023-03-06T12:07:36.007Z,100552.81
2023-03-06T12:09:52.376Z,100558.69
2023-03-06T12:12:10.251Z,100559.81
2023-03-06T12:14:20.943Z,100551.28
2023-03-06T12:16:43.894Z,100555.09
2023-03-06T12:19:12.997Z,100547.47
2023-03-06T12:21:29.589Z,100546.41
2023-03-06T12:24:08.918Z,100550.78
2023-03-06T12:26:48.085Z,100539.88
2023-03-06T12:29:12.617Z,100539.91
2023-03-06T12:31:31.238Z,100533.81
2023-03-06T12:34:02.243Z,100526.59
2023-03-06T12:36:04.274Z,100532.59
2023-03-06T12:38:17.872Z,100526.41
2023-03-06T12:40:28.269Z,100529.72
2023-03-06T12:42:29.933Z,100531.09
2023-03-06T12:44:44.590Z,100532.31
2023-03-06T12:46:57.698Z,100528.00
2023-03-06T12:49:08.873Z,100520.47
2023-03-06T12:51:17.875Z,100525.22
2023-03-06T12:53:27.617Z,100520.56
2023-03-06T12:55:36.918Z,100513.19
2023-03-06T12:57:38.469Z,100510.56
2023-03-06T12:59:49.988Z,100509.47
2023-03-06T13:02:05.518Z,100513.88
2023-03-06T13:04:43.976Z,100517.97
2023-03-06T13:06:51.922Z,100518.63
2023-03-06T13:09:17.652Z,100506.88
2023-03-06T13:11:58.729Z,100513.25
2023-03-06T13:14:00.235Z,100509.75
2023-03-06T13:16:21.776Z,100508.50
2023-03-06T13:18:23.189Z,100496.78
2023-03-06T13:20:38.077Z,100504.94
2023-03-06T13:22:41.597Z,100502.63
2023-03-06T13:24:45.424Z,100500.03
2023-03-06T13:26:46.845Z,100502.81
2023-03-06T13:28:50.908Z,100497.94
2023-03-06T13:30:53.273Z,100492.88
2023-03-06T13:32:56.244Z,100492.28
2023-03-06T13:34:57.854Z,100483.59
2023-03-06T13:37:17.473Z,100488.06
2023-03-06T13:39:18.952Z,100482.75
2023-03-06T13:41:23.388Z,100488.78
2023-03-06T13:43:25.139Z,100483.63
2023-03-06T13:45:47.492Z,100476.47
2023-03-06T13:48:21.100Z,100479.94
2023-03-06T13:50:35.924Z,100473.94
2023-03-06T13:52:49.920Z,100474.00
2023-03-06T13:55:00.188Z,100475.00
2023-03-06T13:57:39.362Z,100468.13
2023-03-06T13:59:44.239Z,100465.63
2023-03-06T14:02:23.258Z,100471.00
2023-03-06T14:04:46.599Z,100470.31
2023-03-06T14:07:21.790Z,100460.72
2023-03-06T14:09:27.955Z,100451.78
2023-03-06T14:11:30.267Z,100460.34
2023-03-06T14:13:47.832Z,100454.09
2023-03-06T14:15:54.622Z,100451.47
2023-03-06T14:18:02.031Z,100454.00
2023-03-06T14:20:13.978Z,100449.69
2023-03-06T14:22:18.856Z,100442.72
2023-03-06T14:24:29.409Z,100446.25
2023-03-06T14:26:41.302Z,100440.00
2023-03-06T14:28:45.771Z,100434.75
2023-03-06T14:30:52.792Z,100424.22
2023-03-06T14:32:55.251Z,100435.63
2023-03-06T14:34:56.738Z,100431.50
2023-03-06T14:37:01.934Z,100429.22
2023-03-06T14:39:14.408Z,100434.63
2023-03-06T14:41:24.790Z,100424.28
2023-03-06T14:43:27.076Z,100430.50
2023-03-06T14:45:28.669Z,100421.03
2023-03-06T14:47:32.683Z,100428.91
2023-03-06T14:49:34.162Z,100425.47
2023-03-06T14:51:42.780Z,100428.06
2023-03-06T14:53:46.309Z,100429.69
2023-03-06T14:55:51.664Z,100425.19
2023-03-06T14:57:59.552Z,100428.53
2023-03-06T15:00:01.308Z,100426.81
2023-03-06T15:02:06.410Z,100420.88
2023-03-06T15:04:25.345Z,100417.69
2023-03-06T15:06:39.870Z,100420.53
2023-03-06T15:08:45.411Z,100414.50
2023-03-06T15:11:05.754Z,100416.31
2023-03-06T15:13:23.616Z,100412.03
2023-03-06T15:15:27.313Z,100409.50
2023-03-06T15:17:32.242Z,100404.22
2023-03-06T15:19:40.613Z,100408.50
2023-03-06T15:21:47.809Z,100412.91
2023-03-06T15:23:51.368Z,100405.13
2023-03-06T15:25:56.225Z,100400.81
2023-03-06T15:28:02.326Z,100411.28
2023-03-06T15:30:24.827Z,100402.66
2023-03-06T15:32:29.212Z,100394.88
2023-03-06T15:34:30.774Z,100396.69
2023-03-06T15:36:37.856Z,100400.22
2023-03-06T15:38:42.227Z,100395.06
2023-03-06T15:40:54.875Z,100385.53
2023-03-06T15:42:57.946Z,100394.28
2023-03-06T15:45:05.544Z,100388.16
2023-03-06T15:47:11.704Z,100386.41
2023-03-06T15:49:16.490Z,100385.50
2023-03-06T15:51:18.024Z,100377.69
2023-03-06T15:53:20.377Z,100379.38
2023-03-06T15:55:25.867Z,100374.13
2023-03-06T15:57:30.688Z,100368.94
2023-03-06T15:59:41.419Z,100372.47
2023-03-06T16:01:43.403Z,100362.81
2023-03-06T16:03:45.567Z,100369.78
2023-03-06T16:05:47.064Z,100363.72
2023-03-06T16:07:48.954Z,100361.94
2023-03-06T16:09:50.540Z,100366.31
2023-03-06T16:11:52.059Z,100369.81
2023-03-06T16:13:56.458Z,100366.38
2023-03-06T16:15:57.986Z,100355.94
2023-03-06T16:18:00.324Z,100355.09
2023-03-06T16:20:01.875Z,100357.78
2023-03-06T16:22:04.335Z,100351.72
2023-03-06T16:24:05.953Z,100348.28
2023-03-06T16:26:19.342Z,100344.00
2023-03-06T16:28:20.926Z,100345.72
2023-03-06T16:30:23.856Z,100343.09
2023-03-06T16:32:28.350Z,100345.75
2023-03-06T16:34:30.218Z,100337.16
2023-03-06T16:36:32.524Z,100340.63
2023-03-06T16:38:33.999Z,100339.00
2023-03-06T16:40:41.409Z,100339.97
2023-03-06T16:42:43.004Z,100337.41
2023-03-06T16:44:44.495Z,100338.28
2023-03-06T16:46:47.890Z,100347.91
2023-03-06T16:48:49.724Z,100338.41
2023-03-06T16:50:51.213Z,100340.19
2023-03-06T16:52:55.013Z,100340.22
2023-03-06T16:54:56.608Z,100338.53
2023-03-06T16:56:58.083Z,100339.44
2023-03-06T16:58:59.605Z,100333.34
2023-03-06T17:01:02.115Z,100330.75
2023-03-06T17:03:03.898Z,100330.72
2023-03-06T17:05:07.239Z,100325.53
2023-03-06T17:07:08.758Z,100319.47
2023-03-06T17:09:14.424Z,100315.16
2023-03-06T17:11:16.512Z,100315.19
2023-03-06T17:13:18.014Z,100315.22
2023-03-06T17:15:19.858Z,100313.50
2023-03-06T17:17:21.448Z,100310.88
2023-03-06T17:19:22.938Z,100312.59
2023-03-06T17:21:26.851Z,100306.56
2023-03-06T17:23:30.350Z,100303.97
2023-03-06T17:25:31.820Z,100299.63
2023-03-06T17:27:34.530Z,100296.19
2023-03-06T17:29:36.216Z,100300.59
2023-03-06T17:31:37.711Z,100291.06
2023-03-06T17:33:39.844Z,100290.19
2023-03-06T17:35:41.360Z,100291.97
2023-03-06T17:37:42.901Z,100292.00
2023-03-06T17:39:44.392Z,100292.00
2023-03-06T17:41:46.537Z,100284.19
2023-03-06T17:43:48.053Z,100281.63
2023-03-06T17:45:49.565Z,100281.66
2023-03-06T17:47:53.783Z,100280.78
2023-03-06T17:49:55.250Z,100279.94
2023-03-06T17:51:59.668Z,100274.75
2023-03-06T17:54:01.160Z,100272.13
2023-03-06T17:56:08.100Z,100272.13
2023-03-06T17:58:12.104Z,100275.63
2023-03-06T18:00:14.496Z,100274.81
2023-03-06T18:02:16.388Z,100267.03
2023-03-06T18:04:17.855Z,100272.28
2023-03-06T18:06:20.989Z,100270.56
2023-03-06T18:08:22.487Z,100270.59
2023-03-06T18:10:24.698Z,100263.66
2023-03-06T18:12:26.877Z,100268.91
2023-03-06T18:14:28.336Z,100256.75
2023-03-06T18:16:30.016Z,100257.63
2023-03-06T18:18:31.713Z,100258.47
2023-03-06T18:20:33.240Z,100250.72
2023-03-06T18:22:34.742Z,100251.59
2023-03-06T18:24:36.475Z,100246.38
2023-03-06T18:26:40.079Z,100240.28
2023-03-06T18:28:44.911Z,100236.81
2023-03-06T18:30:46.565Z,100229.03
2023-03-06T18:32:48.090Z,100230.78
2023-03-06T18:34:50.667Z,100223.81
2023-03-06T18:36:52.852Z,100222.09
2023-03-06T18:38:55.739Z,100218.66
2023-03-06T18:40:57.198Z,100216.09
2023-03-06T18:42:58.744Z,100212.63
2023-03-06T18:45:00.272Z,100208.31
2023-03-06T18:47:01.739Z,100204.84
2023-03-06T18:49:04.453Z,100204.84
2023-03-06T18:51:10.497Z,100204.00
2023-03-06T18:53:11.972Z,100198.78
2023-03-06T18:55:13.433Z,100187.47
2023-03-06T18:57:14.915Z,100192.72
2023-03-06T18:59:18.773Z,100191.84
2023-03-06T19:01:21.240Z,100186.63
2023-03-06T19:03:22.756Z,100183.16
2023-03-06T19:05:24.218Z,100170.16
2023-03-06T19:07:25.789Z,100174.47
2023-03-06T19:09:27.264Z,100171.88
2023-03-06T19:11:29.558Z,100171.00
2023-03-06T19:13:31.511Z,100165.78
2023-03-06T19:15:34.535Z,100159.69
2023-03-06T19:17:37.639Z,100152.75
2023-03-06T19:19:39.114Z,100159.72
2023-03-06T19:21:40.680Z,100156.25
2023-03-06T19:23:42.657Z,100151.94
2023-03-06T19:25:44.121Z,100157.13
2023-03-06T19:27:46.133Z,100146.69
2023-03-06T19:29:47.611Z,100145.81
2023-03-06T19:31:50.826Z,100143.19
2023-03-06T19:33:54.129Z,100142.31
2023-03-06T19:35:55.651Z,100138.00
2023-03-06T19:37:57.153Z,100130.19
2023-03-06T19:40:01.325Z,100131.03
2023-03-06T19:42:04.608Z,100129.28
2023-03-06T19:44:06.384Z,100132.75
2023-03-06T19:46:12.962Z,100119.69
2023-03-06T19:48:14.446Z,100117.06
2023-03-06T19:50:16.327Z,100111.88
2023-03-06T19:52:18.251Z,100124.88
2023-03-06T19:54:23.344Z,100108.38
2023-03-06T19:56:27.565Z,100115.28
2023-03-06T19:58:29.037Z,100104.84
2023-03-06T20:00:30.599Z,100100.53
2023-03-06T20:02:32.614Z,100097.91
2023-03-06T20:04:34.679Z,100082.25
2023-03-06T20:06:39.396Z,100084.84
2023-03-06T20:08:44.743Z,100083.09
2023-03-06T20:10:46.172Z,100077.84
2023-03-06T20:12:48.047Z,100071.75
2023-03-06T20:14:49.591Z,100070.00
2023-03-06T20:16:51.060Z,100069.97
2023-03-06T20:18:52.874Z,100067.34
2023-03-06T20:21:02.520Z,100064.72
2023-03-06T20:23:04.604Z,100069.06
2023-03-06T20:25:06.321Z,100074.25
2023-03-06T20:27:07.809Z,100068.13
2023-03-06T20:29:09.840Z,100066.38
2023-03-06T20:31:11.533Z,100049.00
2023-03-06T20:33:13.214Z,100049.81
2023-03-06T20:35:14.781Z,100044.56
2023-03-06T20:37:16.264Z,100037.59
2023-03-06T20:39:21.588Z,100031.53
2023-03-06T20:41:25.522Z,100022.84
2023-03-06T20:43:27.028Z,100018.47
2023-03-06T20:45:28.477Z,100022.78
2023-03-06T20:47:29.993Z,100012.34
2023-03-06T20:49:31.534Z,100011.47
2023-03-06T20:51:37.531Z,100009.72
2023-03-06T20:53:39.047Z,100004.53
2023-03-06T20:55:40.514Z,99995.00
2023-03-06T20:57:41.985Z,99993.25
2023-03-06T20:59:45.051Z,99982.84
2023-03-06T21:01:47.891Z,99977.66
2023-03-06T21:03:49.436Z,99978.56
2023-03-06T21:05:50.959Z,99976.81
2023-03-06T21:07:52.432Z,99974.25
2023-03-06T21:09:53.957Z,99983.81
2023-03-06T21:11:55.399Z,99976.03
2023-03-06T21:13:57.304Z,99963.88
2023-03-06T21:15:58.846Z,99963.09
2023-03-06T21:18:01.207Z,99963.16
2023-03-06T21:20:02.944Z,99961.44
2023-03-06T21:22:04.889Z,99948.50
2023-03-06T21:24:06.682Z,99950.28
2023-03-06T21:26:12.931Z,99932.97
2023-03-06T21:28:14.665Z,99928.66
2023-03-06T21:30:16.290Z,99926.06
2023-03-06T21:32:17.819Z,99919.97
2023-03-06T21:34:19.316Z,99910.44
2023-03-06T21:36:21.771Z,99901.72
2023-03-06T21:38:23.274Z,99899.16
2023-03-06T21:40:24.829Z,99897.44
2023-03-06T21:42:26.279Z,99887.06
2023-03-06T21:44:27.754Z,99875.81
2023-03-06T21:46:29.782Z,99875.81
2023-03-06T21:48:31.606Z,99875.81
2023-03-06T21:50:33.086Z,99865.44
2023-03-06T21:52:34.559Z,99859.38
2023-03-06T21:54:35.997Z,99852.41
2023-03-06T21:56:37.494Z,99848.03
2023-03-06T21:58:39.194Z,99842.00
2023-03-06T22:00:41.037Z,99835.06
2023-03-06T22:02:42.513Z,99828.13
2023-03-06T22:04:44.564Z,99835.06
2023-03-06T22:06:46.348Z,99812.47
2023-03-06T22:08:48.594Z,99806.34
2023-03-06T22:10:50.248Z,99799.41
2023-03-06T22:12:51.711Z,99803.69
2023-03-06T22:14:53.857Z,99801.09
2023-03-06T22:16:56.776Z,99796.72
2023-03-06T22:18:58.915Z,99782.88
2023-03-06T22:21:00.420Z,99788.91
2023-03-06T22:23:01.897Z,99782.81
2023-03-06T22:25:04.894Z,99777.59
2023-03-06T22:27:06.376Z,99777.59
2023-03-06T22:29:07.828Z,99774.09
2023-03-06T22:31:14.492Z,99774.97
2023-03-06T22:33:16.001Z,99767.13
2023-03-06T22:35:17.444Z,99766.25
2023-03-06T22:37:18.923Z,99754.97
2023-03-06T22:39:20.382Z,99757.56
2023-03-06T22:41:22.485Z,99745.38
2023-03-06T22:43:24.227Z,99738.41
2023-03-06T22:45:25.700Z,99734.91
2023-03-06T22:47:27.203Z,99726.22
2023-03-06T22:49:28.706Z,99723.59
2023-03-06T22:51:30.255Z,99715.78
2023-03-06T22:53:32.058Z,99709.72
2023-03-06T22:55:35.536Z,99717.50
2023-03-06T22:57:37.008Z,99707.03
2023-03-06T22:59:38.465Z,99702.72
2023-03-06T23:01:40.233Z,99698.34
2023-03-06T23:03:44.676Z,99695.72
2023-03-06T23:05:46.249Z,99689.63
2023-03-06T23:07:47.741Z,99687.00
2023-03-06T23:09:49.206Z,99686.13
2023-03-06T23:11:50.712Z,99678.31
2023-03-06T23:13:53.456Z,99682.63
2023-03-06T23:15:54.945Z,99679.16
2023-03-06T23:17:56.625Z,99680.88
2023-03-06T23:19:58.127Z,99674.75
2023-03-06T23:21:59.784Z,99669.56
2023-03-06T23:24:01.938Z,99664.38
2023-03-06T23:26:04.304Z,99665.22
2023-03-06T23:28:05.791Z,99658.28
2023-03-06T23:30:09.146Z,99657.44
2023-03-06T23:32:10.692Z,99651.34
2023-03-06T23:34:12.160Z,99645.28
2023-03-06T23:36:15.466Z,99643.53
2023-03-06T23:38:17.085Z,99639.22
2023-03-06T23:40:18.617Z,99636.59
2023-03-06T23:42:20.120Z,99641.88
2023-03-06T23:44:21.571Z,99626.19
2023-03-06T23:46:23.121Z,99634.06
2023-03-06T23:48:25.394Z,99626.28